Fitzhugh, Oklahoma
Current Conditions -  °F | °C
As of 8:15 PM on Friday 19 Dec 2014 (Local Time) from KADH Reporting Station
Overcast Overcast  
Wind Chill: 41°   Ceiling: 900
Heat Index: 41°   Visibility: 7mi
Dew Point: 41°   Wind: 0mph
Humidity: 100%   Direction: NA
Pressure: 30.22"   Gusts: NA
Location:  34.67°N, 96.78°W
Report Text: KADH 200215Z AUTO 00000KT 7SM BKN009 OVC023 05/05 A3022 RMK AO2
Loading
Personal Weather Stations






























Interactive Weather Map New forecast layout! Learn more

10-Day Weather Forecast

Advertisements
Track Severe Weather on mobile